createdAt,value
2022-12-04T00:02:23.824Z,24.30
2022-12-04T00:04:50.801Z,26.17
2022-12-04T00:07:17.545Z,26.20
2022-12-04T00:09:44.006Z,27.33
2022-12-04T00:12:10.461Z,27.93
2022-12-04T00:14:54.498Z,27.73
2022-12-04T00:17:23.303Z,31.13
2022-12-04T00:19:49.821Z,29.37
2022-12-04T00:22:16.310Z,31.73
2022-12-04T00:24:42.720Z,32.33
2022-12-04T00:27:09.183Z,29.03
2022-12-04T00:29:35.562Z,31.10
2022-12-04T00:32:02.403Z,31.40
2022-12-04T00:34:29.229Z,32.07
2022-12-04T00:36:55.590Z,30.87
2022-12-04T00:39:22.032Z,26.30
2022-12-04T00:41:48.492Z,29.93
2022-12-04T00:44:15.041Z,28.03
2022-12-04T00:46:41.401Z,27.10
2022-12-04T00:49:08.023Z,25.63
2022-12-04T00:51:34.512Z,29.67
2022-12-04T00:54:00.935Z,34.00
2022-12-04T00:56:28.440Z,33.07
2022-12-04T00:58:56.073Z,31.00
2022-12-04T01:01:23.019Z,29.67
2022-12-04T01:03:49.664Z,29.83
2022-12-04T01:06:19.271Z,28.97
2022-12-04T01:08:45.769Z,29.33
2022-12-04T01:11:12.227Z,26.73
2022-12-04T01:13:38.634Z,29.23
2022-12-04T01:16:05.151Z,27.63
2022-12-04T01:18:31.761Z,31.40
2022-12-04T01:20:58.205Z,28.17
2022-12-04T01:23:24.599Z,26.33
2022-12-04T01:25:54.986Z,28.47
2022-12-04T01:28:22.131Z,29.33
2022-12-04T01:30:57.526Z,27.57
2022-12-04T01:33:23.960Z,25.00
2022-12-04T01:35:54.307Z,25.30
2022-12-04T01:38:21.070Z,23.48
2022-12-04T01:40:47.676Z,26.10
2022-12-04T01:43:14.578Z,24.47
2022-12-04T01:45:42.553Z,27.17
2022-12-04T01:48:11.647Z,26.90
2022-12-04T01:50:38.394Z,25.23
2022-12-04T01:53:04.846Z,25.50
2022-12-04T01:55:31.733Z,22.47
2022-12-04T01:57:58.889Z,24.63
2022-12-04T02:00:25.460Z,23.77
2022-12-04T02:02:52.181Z,22.23
2022-12-04T02:05:20.961Z,23.90
2022-12-04T02:07:49.170Z,22.70
2022-12-04T02:10:17.175Z,25.00
2022-12-04T02:13:06.852Z,22.90
2022-12-04T02:15:46.994Z,24.10
2022-12-04T02:18:28.723Z,23.77
2022-12-04T02:21:03.025Z,23.90
2022-12-04T02:23:38.641Z,23.23
2022-12-04T02:26:23.773Z,24.67
2022-12-04T02:28:53.974Z,23.07
2022-12-04T02:31:22.950Z,24.60
2022-12-04T02:34:10.939Z,24.03
2022-12-04T02:36:43.137Z,25.20
2022-12-04T02:39:09.501Z,22.47
2022-12-04T02:41:56.280Z,23.83
2022-12-04T02:44:27.932Z,21.70
2022-12-04T02:46:57.213Z,23.47
2022-12-04T02:49:33.113Z,23.80
2022-12-04T02:52:00.424Z,25.07
2022-12-04T02:54:38.655Z,24.30
2022-12-04T02:57:07.228Z,24.03
2022-12-04T02:59:41.595Z,24.43
2022-12-04T03:02:17.508Z,23.70
2022-12-04T03:04:46.844Z,25.17
2022-12-04T03:07:15.179Z,23.93
2022-12-04T03:09:41.652Z,24.27
2022-12-04T03:12:29.775Z,24.50
2022-12-04T03:15:00.437Z,27.13
2022-12-04T03:17:32.662Z,25.02
2022-12-04T03:20:02.087Z,24.33
2022-12-04T03:22:29.497Z,26.03
2022-12-04T03:24:56.811Z,24.67
2022-12-04T03:27:34.693Z,26.00
2022-12-04T03:30:09.089Z,25.73
2022-12-04T03:32:35.525Z,26.40
2022-12-04T03:35:05.344Z,27.80
2022-12-04T03:37:41.269Z,26.67
2022-12-04T03:40:21.965Z,26.90
2022-12-04T03:42:51.648Z,25.38
2022-12-04T03:45:26.776Z,22.37
2022-12-04T03:47:57.016Z,25.63
2022-12-04T03:50:32.418Z,24.60
2022-12-04T03:53:02.103Z,22.07
2022-12-04T03:55:39.260Z,22.53
2022-12-04T03:58:08.130Z,20.90
2022-12-04T04:00:37.685Z,21.03
2022-12-04T04:03:07.937Z,22.23
2022-12-04T04:05:35.125Z,23.10
2022-12-04T04:08:21.622Z,24.13
2022-12-04T04:10:49.387Z,27.90
2022-12-04T04:13:38.317Z,25.27
2022-12-04T04:16:25.108Z,24.17
2022-12-04T04:19:10.896Z,24.17
2022-12-04T04:22:13.774Z,24.90
2022-12-04T04:24:48.153Z,22.77
2022-12-04T04:27:14.724Z,23.30
2022-12-04T04:29:42.327Z,23.13
2022-12-04T04:32:13.519Z,20.53
2022-12-04T04:34:46.372Z,24.13
2022-12-04T04:37:31.364Z,22.53
2022-12-04T04:40:13.793Z,22.60
2022-12-04T04:42:40.193Z,24.37
2022-12-04T04:45:11.053Z,26.47
2022-12-04T04:47:40.298Z,28.92
2022-12-04T04:50:08.311Z,21.93
2022-12-04T04:52:35.687Z,26.43
2022-12-04T04:55:03.379Z,23.77
2022-12-04T04:57:31.495Z,25.50
2022-12-04T04:59:58.291Z,23.00
2022-12-04T05:02:25.891Z,24.47
2022-12-04T05:04:52.536Z,24.73
2022-12-04T05:07:18.936Z,20.93
2022-12-04T05:09:45.385Z,20.70
2022-12-04T05:12:11.770Z,21.00
2022-12-04T05:14:38.157Z,23.83
2022-12-04T05:17:10.755Z,22.60
2022-12-04T05:19:54.842Z,21.23
2022-12-04T05:22:32.112Z,21.67
2022-12-04T05:24:58.914Z,25.03
2022-12-04T05:27:25.774Z,22.20
2022-12-04T05:29:56.536Z,23.13
2022-12-04T05:32:23.954Z,22.05
2022-12-04T05:34:50.888Z,24.93
2022-12-04T05:37:17.393Z,23.53
2022-12-04T05:39:43.824Z,23.30
2022-12-04T05:42:10.473Z,25.10
2022-12-04T05:44:36.937Z,21.90
2022-12-04T05:47:03.743Z,24.23
2022-12-04T05:49:30.815Z,25.83
2022-12-04T05:51:57.371Z,23.70
2022-12-04T05:54:24.731Z,23.07
2022-12-04T05:56:51.272Z,23.47
2022-12-04T05:59:18.306Z,21.93
2022-12-04T06:01:45.711Z,25.00
2022-12-04T06:04:12.469Z,22.27
2022-12-04T06:06:39.085Z,20.07
2022-12-04T06:09:06.393Z,21.90
2022-12-04T06:11:33.966Z,21.27
2022-12-04T06:14:01.285Z,20.97
2022-12-04T06:16:30.013Z,21.33
2022-12-04T06:19:01.135Z,21.60
2022-12-04T06:21:29.282Z,21.13
2022-12-04T06:23:55.983Z,24.93
2022-12-04T06:26:23.110Z,26.57
2022-12-04T06:28:50.404Z,29.20
2022-12-04T06:31:19.091Z,23.80
2022-12-04T06:33:45.682Z,21.97
2022-12-04T06:36:13.424Z,23.33
2022-12-04T06:38:39.906Z,24.80
2022-12-04T06:41:07.597Z,22.20
2022-12-04T06:43:35.304Z,25.67
2022-12-04T06:46:05.075Z,23.73
2022-12-04T06:48:32.155Z,24.93
2022-12-04T06:50:59.724Z,22.13
2022-12-04T06:53:27.705Z,26.77
2022-12-04T06:55:54.939Z,28.50
2022-12-04T06:58:21.556Z,24.33
2022-12-04T07:00:48.073Z,25.30
2022-12-04T07:03:14.529Z,24.50
2022-12-04T07:05:40.933Z,23.27
2022-12-04T07:08:07.479Z,24.90
2022-12-04T07:10:35.625Z,27.40
2022-12-04T07:13:02.499Z,24.63
2022-12-04T07:15:29.306Z,26.47
2022-12-04T07:17:55.840Z,26.33
2022-12-04T07:20:22.250Z,23.83
2022-12-04T07:22:48.726Z,23.50
2022-12-04T07:25:15.313Z,20.90
2022-12-04T07:27:41.905Z,22.90
2022-12-04T07:30:14.073Z,26.00
2022-12-04T07:32:42.046Z,25.90
2022-12-04T07:35:08.587Z,24.33
2022-12-04T07:37:35.769Z,22.60
2022-12-04T07:40:02.387Z,23.53
2022-12-04T07:42:29.167Z,25.37
2022-12-04T07:44:55.568Z,27.17
2022-12-04T07:47:21.954Z,24.90
2022-12-04T07:49:48.444Z,22.60
2022-12-04T07:52:14.888Z,25.00
2022-12-04T07:54:41.405Z,23.17
2022-12-04T07:57:07.820Z,26.60
2022-12-04T07:59:34.193Z,24.20
2022-12-04T08:02:01.267Z,25.40
2022-12-04T08:04:27.982Z,29.30
2022-12-04T08:06:54.440Z,30.80
2022-12-04T08:09:20.811Z,33.80
2022-12-04T08:11:47.281Z,26.77
2022-12-04T08:14:13.754Z,25.53
2022-12-04T08:16:40.424Z,29.67
2022-12-04T08:19:06.951Z,25.73
2022-12-04T08:21:33.701Z,26.63
2022-12-04T08:24:00.516Z,41.00
2022-12-04T08:26:28.271Z,27.23
2022-12-04T08:28:55.467Z,27.57
2022-12-04T08:31:23.785Z,29.20
2022-12-04T08:33:51.532Z,31.17
2022-12-04T08:36:19.344Z,29.30
2022-12-04T08:38:46.568Z,33.33
2022-12-04T08:41:14.340Z,33.00
2022-12-04T08:43:41.359Z,34.03
2022-12-04T08:46:11.263Z,32.57
2022-12-04T08:48:37.833Z,31.70
2022-12-04T08:51:04.679Z,33.57
2022-12-04T08:53:32.060Z,31.30
2022-12-04T08:56:00.669Z,34.60
2022-12-04T08:58:27.089Z,30.27
2022-12-04T09:00:53.652Z,29.90
2022-12-04T09:03:22.635Z,29.27
2022-12-04T09:05:52.571Z,29.93
2022-12-04T09:08:19.086Z,29.13
2022-12-04T09:10:45.584Z,27.50
2022-12-04T09:13:12.207Z,29.93
2022-12-04T09:15:39.426Z,29.87
2022-12-04T09:18:07.227Z,27.13
2022-12-04T09:20:33.907Z,31.57
2022-12-04T09:23:04.954Z,31.43
2022-12-04T09:25:32.340Z,33.70
2022-12-04T09:27:58.881Z,32.07
2022-12-04T09:30:25.620Z,29.30
2022-12-04T09:32:52.088Z,28.47
2022-12-04T09:35:18.747Z,24.40
2022-12-04T09:37:45.190Z,26.40
2022-12-04T09:40:29.533Z,23.90
2022-12-04T09:43:06.401Z,24.30
2022-12-04T09:45:37.913Z,23.97
2022-12-04T09:48:04.584Z,20.67
2022-12-04T09:50:34.003Z,20.87
2022-12-04T09:53:09.273Z,21.77
2022-12-04T09:55:38.899Z,20.97
2022-12-04T09:58:06.580Z,19.37
2022-12-04T10:00:36.518Z,21.27
2022-12-04T10:03:07.716Z,19.47
2022-12-04T10:08:18.575Z,21.23
2022-12-04T10:11:05.569Z,20.27
2022-12-04T10:13:35.316Z,21.50
2022-12-04T10:16:12.193Z,20.43
2022-12-04T10:18:47.573Z,22.17
2022-12-04T10:21:30.356Z,20.70
2022-12-04T10:24:08.256Z,21.00
2022-12-04T10:26:41.352Z,21.23
2022-12-04T10:29:09.012Z,23.00
2022-12-04T10:31:37.631Z,22.00
2022-12-04T10:34:12.513Z,21.83
2022-12-04T10:36:39.842Z,22.30
2022-12-04T10:39:10.269Z,20.17
2022-12-04T10:41:43.279Z,22.80
2022-12-04T10:44:13.763Z,24.63
2022-12-04T10:46:45.731Z,22.42
2022-12-04T10:49:25.237Z,24.77
2022-12-04T10:51:52.047Z,22.90
2022-12-04T10:54:23.668Z,20.73
2022-12-04T10:57:00.549Z,22.87
2022-12-04T10:59:27.333Z,18.67
2022-12-04T11:02:06.105Z,18.50
2022-12-04T11:04:34.038Z,21.80
2022-12-04T11:07:05.227Z,20.83
2022-12-04T11:09:32.446Z,21.63
2022-12-04T11:12:18.820Z,21.90
2022-12-04T11:14:47.366Z,22.17
2022-12-04T11:17:18.041Z,23.20
2022-12-04T11:19:45.173Z,21.90
2022-12-04T11:22:11.821Z,21.60
2022-12-04T11:24:40.045Z,25.23
2022-12-04T11:27:07.537Z,23.33
2022-12-04T11:29:41.099Z,22.23
2022-12-04T11:32:08.294Z,22.90
2022-12-04T11:34:36.771Z,22.07
2022-12-04T11:37:03.685Z,21.57
2022-12-04T11:39:30.104Z,23.60
2022-12-04T11:42:04.018Z,20.63
2022-12-04T11:44:32.390Z,21.07
2022-12-04T11:47:01.901Z,23.53
2022-12-04T11:49:29.368Z,23.77
2022-12-04T11:52:05.171Z,24.30
2022-12-04T11:54:39.671Z,20.67
2022-12-04T11:57:16.238Z,22.13
2022-12-04T11:59:42.802Z,23.50
2022-12-04T12:02:27.653Z,31.57
2022-12-04T12:05:04.019Z,38.47
2022-12-04T12:07:36.365Z,21.47
2022-12-04T12:10:24.816Z,20.13
2022-12-04T12:13:23.429Z,21.50
2022-12-04T12:15:55.750Z,21.63
2022-12-04T12:18:27.979Z,22.63
2022-12-04T12:21:08.138Z,23.27
2022-12-04T12:23:37.429Z,23.53
2022-12-04T12:26:08.749Z,23.30
2022-12-04T12:31:07.767Z,19.93
2022-12-04T12:33:36.729Z,20.00
2022-12-04T12:36:03.316Z,19.07
2022-12-04T12:38:34.730Z,18.90
2022-12-04T12:41:06.652Z,19.77
2022-12-04T12:43:35.285Z,17.00
2022-12-04T12:46:08.534Z,20.63
2022-12-04T12:48:55.003Z,19.80
2022-12-04T12:51:30.493Z,22.47
2022-12-04T12:54:01.796Z,20.20
2022-12-04T12:56:36.255Z,19.30
2022-12-04T12:59:04.329Z,20.17
2022-12-04T13:01:39.903Z,22.00
2022-12-04T13:04:11.097Z,18.73
2022-12-04T13:06:42.002Z,21.52
2022-12-04T13:09:14.365Z,18.90
2022-12-04T13:11:41.596Z,22.33
2022-12-04T13:14:12.346Z,20.47
2022-12-04T13:16:42.460Z,19.23
2022-12-04T13:19:24.269Z,21.30
2022-12-04T13:21:59.724Z,19.80
2022-12-04T13:24:44.798Z,22.67
2022-12-04T13:27:21.789Z,19.90
2022-12-04T13:29:57.434Z,20.10
2022-12-04T13:32:30.102Z,16.93
2022-12-04T13:35:04.124Z,20.70
2022-12-04T13:37:47.972Z,18.60
2022-12-04T13:40:29.043Z,18.77
2022-12-04T13:43:14.109Z,21.58
2022-12-04T13:45:40.981Z,19.73
2022-12-04T13:48:09.598Z,18.00
2022-12-04T13:50:37.112Z,18.40
2022-12-04T13:53:04.214Z,16.80
2022-12-04T13:55:30.804Z,16.87
2022-12-04T13:57:58.643Z,19.20
2022-12-04T14:00:28.138Z,17.57
2022-12-04T14:02:55.754Z,17.63
2022-12-04T14:05:33.642Z,17.93
2022-12-04T14:08:07.602Z,17.53
2022-12-04T14:10:36.702Z,17.97
2022-12-04T14:13:05.503Z,18.33
2022-12-04T14:15:33.449Z,17.97
2022-12-04T14:18:05.450Z,18.90
2022-12-04T14:20:33.301Z,20.03
2022-12-04T14:23:20.087Z,18.67
2022-12-04T14:25:46.521Z,20.43
2022-12-04T14:28:23.063Z,21.40
2022-12-04T14:31:08.213Z,19.53
2022-12-04T14:33:38.221Z,20.53
2022-12-04T14:36:28.092Z,23.90
2022-12-04T14:39:13.529Z,24.93
2022-12-04T14:41:40.637Z,23.23
2022-12-04T14:44:07.593Z,23.57
2022-12-04T14:46:38.569Z,23.00
2022-12-04T14:49:14.536Z,22.55
2022-12-04T14:51:49.574Z,21.87
2022-12-04T14:54:36.240Z,21.03
2022-12-04T14:57:12.953Z,21.20
2022-12-04T14:59:47.862Z,20.87
2022-12-04T15:02:17.630Z,18.60
2022-12-04T15:04:46.353Z,19.63
2022-12-04T15:07:28.393Z,22.40
2022-12-04T15:10:14.923Z,23.40
2022-12-04T15:12:45.089Z,20.63
2022-12-04T15:15:14.017Z,22.70
2022-12-04T15:17:40.748Z,20.50
2022-12-04T15:20:11.193Z,22.80
2022-12-04T15:22:37.738Z,21.58
2022-12-04T15:25:06.248Z,20.23
2022-12-04T15:27:33.195Z,21.60
2022-12-04T15:30:01.012Z,22.47
2022-12-04T15:32:28.821Z,21.43
2022-12-04T15:34:59.389Z,21.17
2022-12-04T15:37:27.055Z,23.45
2022-12-04T15:39:53.955Z,23.87
2022-12-04T15:42:23.407Z,23.13
2022-12-04T15:44:54.957Z,20.67
2022-12-04T15:47:23.219Z,23.53
2022-12-04T15:49:49.682Z,21.93
2022-12-04T15:52:17.757Z,20.83
2022-12-04T15:54:48.344Z,25.03
2022-12-04T15:57:23.963Z,23.77
2022-12-04T15:59:51.672Z,23.37
2022-12-04T16:02:41.296Z,25.57
2022-12-04T16:05:24.002Z,22.73
2022-12-04T16:07:51.522Z,23.90
2022-12-04T16:10:21.361Z,26.17
2022-12-04T16:12:55.651Z,23.80
2022-12-04T16:15:22.622Z,27.00
2022-12-04T16:17:49.222Z,26.83
2022-12-04T16:20:15.988Z,24.93
2022-12-04T16:22:42.573Z,25.73
2022-12-04T16:25:12.615Z,27.97
2022-12-04T16:27:39.144Z,26.80
2022-12-04T16:30:05.934Z,25.87
2022-12-04T16:32:33.347Z,25.93
2022-12-04T16:35:00.227Z,26.10
2022-12-04T16:37:27.117Z,28.63
2022-12-04T16:39:53.734Z,25.50
2022-12-04T16:42:29.481Z,26.30
2022-12-04T16:44:56.544Z,23.23
2022-12-04T16:47:23.186Z,26.57
2022-12-04T16:49:50.823Z,23.80
2022-12-04T16:52:17.889Z,24.13
2022-12-04T16:54:44.599Z,26.27
2022-12-04T16:57:11.330Z,27.93
2022-12-04T16:59:38.183Z,25.67
2022-12-04T17:02:12.380Z,30.37
2022-12-04T17:04:38.965Z,32.43
2022-12-04T17:07:05.631Z,33.07
2022-12-04T17:09:32.060Z,33.30
2022-12-04T17:11:58.506Z,32.23
2022-12-04T17:14:24.863Z,36.53
2022-12-04T17:16:52.030Z,34.60
2022-12-04T17:19:19.045Z,36.40
2022-12-04T17:21:46.165Z,36.13
2022-12-04T17:24:12.556Z,34.63
2022-12-04T17:26:39.068Z,38.57
2022-12-04T17:29:05.441Z,40.43
2022-12-04T17:31:32.157Z,35.17
2022-12-04T17:33:58.764Z,36.90
2022-12-04T17:36:26.206Z,34.93
2022-12-04T17:38:56.564Z,36.40
2022-12-04T17:41:23.156Z,33.77
2022-12-04T17:43:49.803Z,33.53
2022-12-04T17:46:18.888Z,36.17
2022-12-04T17:48:45.563Z,38.33
2022-12-04T17:51:14.897Z,36.43
2022-12-04T17:53:41.343Z,36.30
2022-12-04T17:56:09.756Z,36.23
2022-12-04T17:58:36.257Z,35.50
2022-12-04T18:01:07.838Z,32.93
2022-12-04T18:03:34.760Z,35.00
2022-12-04T18:06:01.643Z,35.33
2022-12-04T18:08:29.554Z,33.80
2022-12-04T18:10:56.773Z,33.20
2022-12-04T18:13:23.162Z,30.63
2022-12-04T18:15:49.590Z,29.27
2022-12-04T18:18:16.059Z,26.50
2022-12-04T18:20:42.505Z,25.43
2022-12-04T18:23:09.045Z,22.43
2022-12-04T18:25:35.476Z,22.57
2022-12-04T18:28:01.851Z,22.07
2022-12-04T18:30:28.297Z,23.17
2022-12-04T18:32:55.296Z,25.60
2022-12-04T18:35:21.690Z,21.47
2022-12-04T18:37:48.562Z,22.20
2022-12-04T18:40:15.037Z,20.87
2022-12-04T18:42:41.701Z,24.27
2022-12-04T18:45:08.510Z,22.33
2022-12-04T18:47:36.512Z,21.17
2022-12-04T18:50:03.105Z,19.37
2022-12-04T18:52:29.780Z,20.03
2022-12-04T18:54:56.180Z,20.73
2022-12-04T18:57:22.592Z,21.50
2022-12-04T18:59:49.025Z,22.77
2022-12-04T19:02:15.473Z,20.57
2022-12-04T19:04:42.097Z,21.80
2022-12-04T19:07:08.778Z,21.87
2022-12-04T19:10:09.487Z,20.90
2022-12-04T19:12:21.738Z,22.20
2022-12-04T19:14:48.180Z,23.43
2022-12-04T19:17:15.905Z,25.00
2022-12-04T19:19:42.313Z,27.93
2022-12-04T19:22:08.755Z,26.70
2022-12-04T19:24:35.151Z,24.20
2022-12-04T19:27:09.859Z,30.87
2022-12-04T19:29:36.844Z,30.13
2022-12-04T19:32:03.349Z,33.07
2022-12-04T19:34:29.811Z,30.20
2022-12-04T19:36:56.297Z,31.90
2022-12-04T19:39:22.771Z,28.97
2022-12-04T19:41:49.229Z,25.13
2022-12-04T19:44:47.453Z,27.00
2022-12-04T19:47:02.404Z,25.10
2022-12-04T19:49:29.396Z,23.07
2022-12-04T19:51:55.817Z,27.87
2022-12-04T19:54:23.921Z,26.83
2022-12-04T19:56:51.210Z,29.90
2022-12-04T19:59:18.174Z,28.10
2022-12-04T20:01:44.675Z,28.40
2022-12-04T20:04:11.262Z,27.73
2022-12-04T20:06:39.669Z,31.30
2022-12-04T20:09:08.361Z,32.23
2022-12-04T20:11:35.623Z,30.77
2022-12-04T20:14:03.830Z,38.70
2022-12-04T20:16:31.498Z,35.53
2022-12-04T20:18:58.150Z,33.67
2022-12-04T20:21:28.377Z,29.60
2022-12-04T20:23:54.860Z,29.23
2022-12-04T20:26:22.210Z,25.43
2022-12-04T20:28:48.653Z,30.73
2022-12-04T20:31:19.616Z,30.43
2022-12-04T20:33:47.677Z,32.38
2022-12-04T20:36:15.664Z,29.93
2022-12-04T20:38:42.613Z,30.30
2022-12-04T20:41:10.333Z,27.73
2022-12-04T20:43:36.964Z,25.33
2022-12-04T20:46:13.325Z,28.10
2022-12-04T20:48:39.788Z,30.73
2022-12-04T20:51:06.329Z,35.07
2022-12-04T20:53:33.020Z,34.93
2022-12-04T20:55:59.538Z,33.83
2022-12-04T20:58:27.329Z,36.73
2022-12-04T21:00:53.965Z,35.67
2022-12-04T21:03:20.357Z,35.00
2022-12-04T21:05:49.951Z,33.93
2022-12-04T21:08:36.690Z,38.47
2022-12-04T21:11:03.209Z,38.40
2022-12-04T21:13:48.443Z,42.43
2022-12-04T21:16:15.622Z,39.37
2022-12-04T21:18:42.125Z,35.10
2022-12-04T21:21:08.665Z,35.87
2022-12-04T21:23:35.959Z,38.53
2022-12-04T21:26:02.373Z,40.43
2022-12-04T21:28:28.944Z,37.30
2022-12-04T21:31:00.373Z,36.40
2022-12-04T21:33:29.053Z,36.73
2022-12-04T21:35:55.484Z,35.73
2022-12-04T21:38:21.938Z,42.90
2022-12-04T21:40:48.977Z,41.00
2022-12-04T21:43:15.682Z,39.53
2022-12-04T21:45:42.183Z,36.67
2022-12-04T21:48:08.593Z,38.03
2022-12-04T21:50:35.023Z,31.30
2022-12-04T21:53:01.455Z,37.07
2022-12-04T21:55:27.995Z,35.47
2022-12-04T21:57:54.440Z,35.30
2022-12-04T22:00:20.959Z,32.67
2022-12-04T22:02:47.397Z,30.57
2022-12-04T22:05:13.866Z,30.40
2022-12-04T22:07:40.643Z,30.53
2022-12-04T22:10:10.850Z,33.83
2022-12-04T22:12:52.866Z,33.90
2022-12-04T22:15:19.409Z,29.77
2022-12-04T22:17:45.880Z,36.93
2022-12-04T22:20:12.275Z,32.57
2022-12-04T22:22:38.661Z,33.83
2022-12-04T22:25:05.260Z,31.57
2022-12-04T22:27:31.672Z,31.33
2022-12-04T22:29:58.418Z,29.47
2022-12-04T22:32:24.864Z,33.20
2022-12-04T22:34:51.339Z,30.60
2022-12-04T22:37:17.770Z,29.40
2022-12-04T22:39:44.229Z,33.07
2022-12-04T22:42:10.790Z,28.67
2022-12-04T22:44:37.269Z,32.33
2022-12-04T22:47:03.875Z,33.70
2022-12-04T22:49:30.305Z,29.87
2022-12-04T22:51:56.721Z,31.80
2022-12-04T22:54:23.153Z,38.63
2022-12-04T22:56:49.817Z,38.03
2022-12-04T22:59:16.293Z,34.70
2022-12-04T23:01:42.974Z,35.80
2022-12-04T23:04:09.465Z,31.97
2022-12-04T23:06:36.043Z,33.93
2022-12-04T23:09:04.233Z,35.27
2022-12-04T23:11:30.802Z,32.97
2022-12-04T23:14:00.085Z,35.33
2022-12-04T23:16:27.409Z,33.67
2022-12-04T23:18:53.889Z,35.33
2022-12-04T23:21:21.101Z,32.97
2022-12-04T23:23:48.237Z,35.63
2022-12-04T23:26:16.569Z,36.27
2022-12-04T23:28:43.095Z,32.03
2022-12-04T23:31:11.047Z,30.47
2022-12-04T23:33:38.240Z,32.10
2022-12-04T23:36:05.844Z,33.37
2022-12-04T23:38:32.464Z,33.83
2022-12-04T23:41:00.713Z,31.37
2022-12-04T23:43:27.195Z,34.30
2022-12-04T23:45:53.616Z,32.27
2022-12-04T23:48:20.024Z,33.27
2022-12-04T23:50:46.458Z,37.30
2022-12-04T23:53:13.083Z,35.93
2022-12-04T23:55:39.622Z,36.10
2022-12-04T23:58:06.299Z,35.73
